createdAt,value
2019-05-25T00:02:10.584Z,1.73
2019-05-25T00:04:39.673Z,1.60
2019-05-25T00:07:08.425Z,1.73
2019-05-25T00:09:37.136Z,1.80
2019-05-25T00:12:05.812Z,1.53
2019-05-25T00:14:34.804Z,1.83
2019-05-25T00:17:03.487Z,1.60
2019-05-25T00:19:32.248Z,1.80
2019-05-25T00:22:01.552Z,1.60
2019-05-25T00:24:30.353Z,1.80
2019-05-25T00:26:59.102Z,1.60
2019-05-25T00:29:28.091Z,1.50
2019-05-25T00:31:56.925Z,1.60
2019-05-25T00:34:26.279Z,1.60
2019-05-25T00:36:55.248Z,1.70
2019-05-25T00:39:24.174Z,1.37
2019-05-25T00:41:52.965Z,1.60
2019-05-25T00:44:21.718Z,2.03
2019-05-25T00:46:50.474Z,1.63
2019-05-25T00:49:19.455Z,1.67
2019-05-25T00:51:48.309Z,1.77
2019-05-25T00:54:27.442Z,1.30
2019-05-25T00:56:47.414Z,2.10
2019-05-25T00:59:16.525Z,1.70
2019-05-25T01:01:45.273Z,1.40
2019-05-25T01:04:13.996Z,1.50
2019-05-25T01:06:42.732Z,1.50
2019-05-25T01:09:11.453Z,1.60
2019-05-25T01:11:40.466Z,1.40
2019-05-25T01:14:09.733Z,1.40
2019-05-25T01:16:38.643Z,1.33
2019-05-25T01:19:07.405Z,1.53
2019-05-25T01:21:36.108Z,1.70
2019-05-25T01:24:04.979Z,1.40
2019-05-25T01:26:33.906Z,1.40
2019-05-25T01:29:02.567Z,1.50
2019-05-25T01:31:31.255Z,1.30
2019-05-25T01:33:59.943Z,1.30
2019-05-25T01:36:28.899Z,1.40
2019-05-25T01:38:57.823Z,1.60
2019-05-25T01:41:26.506Z,1.30
2019-05-25T01:43:55.171Z,1.50
2019-05-25T01:46:23.845Z,1.70
2019-05-25T01:48:53.231Z,1.30
2019-05-25T01:51:21.894Z,1.37
2019-05-25T01:53:50.603Z,1.30
2019-05-25T01:56:19.425Z,1.60
2019-05-25T01:58:48.519Z,1.27
2019-05-25T02:01:17.151Z,1.67
2019-05-25T02:03:46.619Z,1.43
2019-05-25T02:06:15.419Z,1.60
2019-05-25T02:08:44.075Z,1.30
2019-05-25T02:11:12.738Z,1.60
2019-05-25T02:13:41.419Z,1.47
2019-05-25T02:16:10.228Z,1.30
2019-05-25T02:18:39.251Z,1.47
2019-05-25T02:21:08.247Z,1.23
2019-05-25T02:23:36.906Z,1.30
2019-05-25T02:26:06.034Z,1.90
2019-05-25T02:28:34.784Z,1.67
2019-05-25T02:31:03.758Z,1.70
2019-05-25T02:33:32.443Z,1.20
2019-05-25T02:36:01.318Z,1.67
2019-05-25T02:38:31.356Z,1.40
2019-05-25T02:41:00.525Z,1.80
2019-05-25T02:43:29.376Z,1.67
2019-05-25T02:45:58.167Z,2.00
2019-05-25T02:48:26.827Z,1.70
2019-05-25T02:50:55.731Z,1.80
2019-05-25T02:53:24.407Z,2.00
2019-05-25T02:55:53.101Z,1.60
2019-05-25T02:58:21.771Z,1.93
2019-05-25T03:00:50.428Z,1.63
2019-05-25T03:03:19.256Z,1.60
2019-05-25T03:05:50.216Z,1.87
2019-05-25T03:08:19.298Z,1.70
2019-05-25T03:10:49.578Z,2.03
2019-05-25T03:13:18.828Z,2.00
2019-05-25T03:15:47.485Z,1.73
2019-05-25T03:18:16.153Z,2.03
2019-05-25T03:20:45.132Z,1.97
2019-05-25T03:23:13.845Z,1.90
2019-05-25T03:25:49.606Z,1.67
2019-05-25T03:28:12.928Z,1.50
2019-05-25T03:30:41.731Z,1.70
2019-05-25T03:33:10.494Z,1.43
2019-05-25T03:35:39.447Z,2.30
2019-05-25T03:38:08.134Z,1.80
2019-05-25T03:40:36.849Z,1.60
2019-05-25T03:43:05.548Z,2.10
2019-05-25T03:45:34.289Z,2.03
2019-05-25T03:48:03.075Z,1.63
2019-05-25T03:50:31.781Z,1.60
2019-05-25T03:53:00.544Z,1.63
2019-05-25T03:55:29.201Z,1.67
2019-05-25T03:57:58.673Z,1.50
2019-05-25T04:00:33.181Z,1.47
2019-05-25T04:03:01.911Z,1.47
2019-05-25T04:05:30.613Z,1.60
2019-05-25T04:07:59.362Z,1.70
2019-05-25T04:10:28.261Z,1.90
2019-05-25T04:12:57.135Z,1.67
2019-05-25T04:15:26.285Z,1.53
2019-05-25T04:17:54.978Z,1.57
2019-05-25T04:20:26.503Z,1.60
2019-05-25T04:22:55.183Z,1.80
2019-05-25T04:25:28.031Z,1.70
2019-05-25T04:28:04.148Z,1.83
2019-05-25T04:30:32.959Z,1.80
2019-05-25T04:33:10.405Z,1.40
2019-05-25T04:35:39.307Z,1.40
2019-05-25T04:38:29.603Z,1.43
2019-05-25T04:40:58.375Z,1.23
2019-05-25T04:43:55.894Z,1.40
2019-05-25T04:46:38.181Z,1.07
2019-05-25T04:49:12.696Z,0.80
2019-05-25T04:51:46.072Z,1.10
2019-05-25T04:54:17.349Z,1.00
2019-05-25T04:56:51.936Z,1.10
2019-05-25T04:59:28.800Z,0.95
2019-05-25T05:02:04.739Z,1.15
2019-05-25T05:04:33.896Z,1.07
2019-05-25T05:07:41.304Z,0.88
2019-05-25T05:10:40.726Z,0.98
2019-05-25T05:13:20.120Z,1.02
2019-05-25T05:15:51.808Z,0.70
2019-05-25T05:18:39.501Z,1.10
2019-05-25T05:21:04.814Z,1.10
2019-05-25T05:23:33.987Z,0.80
2019-05-25T05:26:27.483Z,1.00
2019-05-25T05:29:07.658Z,0.80
2019-05-25T05:32:09.822Z,0.62
2019-05-25T05:34:50.514Z,0.93
2019-05-25T05:37:25.594Z,1.87
2019-05-25T05:40:16.349Z,1.10
2019-05-25T05:43:07.019Z,1.12
2019-05-25T05:45:47.723Z,1.07
2019-05-25T05:48:29.924Z,0.93
2019-05-25T05:51:11.103Z,0.90
2019-05-25T05:54:08.035Z,0.70
2019-05-25T05:56:44.440Z,1.05
2019-05-25T05:59:18.312Z,0.70
2019-05-25T06:01:50.481Z,1.30
2019-05-25T06:04:21.759Z,0.60
2019-05-25T06:07:02.781Z,0.82
2019-05-25T06:09:33.432Z,0.80
2019-05-25T06:12:14.256Z,0.62
2019-05-25T06:14:55.961Z,0.88
2019-05-25T06:17:47.569Z,0.85
2019-05-25T06:20:23.136Z,1.00
2019-05-25T06:23:26.987Z,0.72
2019-05-25T06:25:52.853Z,0.98
2019-05-25T06:28:22.584Z,0.68
2019-05-25T06:30:51.451Z,0.85
2019-05-25T06:33:49.046Z,0.85
2019-05-25T06:36:19.606Z,0.60
2019-05-25T06:38:54.251Z,1.10
2019-05-25T06:41:21.797Z,0.93
2019-05-25T06:44:06.542Z,0.80
2019-05-25T06:46:45.332Z,0.70
2019-05-25T06:49:17.999Z,0.88
2019-05-25T06:52:22.056Z,1.12
2019-05-25T06:55:32.227Z,0.72
2019-05-25T06:57:46.139Z,0.70
2019-05-25T07:00:28.380Z,0.85
2019-05-25T07:03:07.729Z,1.25
2019-05-25T07:05:44.587Z,0.98
2019-05-25T07:08:27.160Z,1.05
2019-05-25T07:11:08.552Z,1.00
2019-05-25T07:14:08.698Z,0.88
2019-05-25T07:16:45.353Z,0.93
2019-05-25T07:19:47.462Z,0.90
2019-05-25T07:22:27.654Z,1.00
2019-05-25T07:25:09.491Z,1.20
2019-05-25T07:27:58.198Z,1.12
2019-05-25T07:30:33.328Z,1.30
2019-05-25T07:33:29.727Z,0.85
2019-05-25T07:35:58.386Z,1.32
2019-05-25T07:38:27.783Z,1.22
2019-05-25T07:40:56.462Z,1.50
2019-05-25T07:43:25.133Z,1.00
2019-05-25T07:45:53.965Z,1.25
2019-05-25T07:48:23.142Z,1.42
2019-05-25T07:50:53.367Z,1.20
2019-05-25T07:53:22.071Z,1.17
2019-05-25T07:55:50.772Z,1.55
2019-05-25T07:58:19.528Z,1.57
2019-05-25T08:00:48.608Z,1.10
2019-05-25T08:03:17.357Z,1.70
2019-05-25T08:05:46.139Z,1.17
2019-05-25T08:08:14.919Z,1.97
2019-05-25T08:10:43.623Z,2.02
2019-05-25T08:13:12.678Z,1.77
2019-05-25T08:15:41.404Z,1.47
2019-05-25T08:18:10.071Z,1.40
2019-05-25T08:20:39.408Z,1.62
2019-05-25T08:23:08.077Z,1.50
2019-05-25T08:25:36.743Z,1.27
2019-05-25T08:28:05.843Z,1.90
2019-05-25T08:30:34.560Z,1.60
2019-05-25T08:33:03.291Z,1.85
2019-05-25T08:35:32.595Z,2.23
2019-05-25T08:38:01.334Z,1.73
2019-05-25T08:40:30.386Z,1.57
2019-05-25T08:42:59.708Z,1.53
2019-05-25T08:45:28.375Z,1.75
2019-05-25T08:47:57.563Z,1.60
2019-05-25T08:50:37.667Z,1.40
2019-05-25T08:52:57.012Z,1.60
2019-05-25T08:55:25.675Z,1.90
2019-05-25T08:57:54.610Z,1.90
2019-05-25T09:00:23.453Z,1.90
2019-05-25T09:02:52.856Z,1.63
2019-05-25T09:05:21.790Z,2.00
2019-05-25T09:07:50.648Z,2.47
2019-05-25T09:10:19.426Z,2.10
2019-05-25T09:12:48.160Z,3.23
2019-05-25T09:15:17.458Z,2.57
2019-05-25T09:17:46.456Z,2.13
2019-05-25T09:20:15.825Z,2.20
2019-05-25T09:22:44.488Z,2.67
2019-05-25T09:25:13.602Z,2.73
2019-05-25T09:27:42.279Z,2.43
2019-05-25T09:30:11.203Z,2.10
2019-05-25T09:32:41.315Z,2.17
2019-05-25T09:35:10.248Z,2.30
2019-05-25T09:37:38.930Z,1.97
2019-05-25T09:40:08.476Z,2.17
2019-05-25T09:42:38.673Z,2.37
2019-05-25T09:45:08.802Z,1.80
2019-05-25T09:47:37.514Z,1.82
2019-05-25T09:50:06.547Z,1.95
2019-05-25T09:52:35.192Z,2.00
2019-05-25T09:55:04.452Z,2.00
2019-05-25T09:57:33.153Z,3.65
2019-05-25T10:00:01.922Z,2.27
2019-05-25T10:02:30.624Z,2.15
2019-05-25T10:04:59.284Z,2.10
2019-05-25T10:07:27.998Z,1.80
2019-05-25T10:09:56.730Z,1.70
2019-05-25T10:12:25.408Z,1.67
2019-05-25T10:14:54.311Z,1.77
2019-05-25T10:17:23.000Z,1.60
2019-05-25T10:19:51.748Z,1.47
2019-05-25T10:22:20.440Z,1.65
2019-05-25T10:24:49.449Z,1.52
2019-05-25T10:27:18.128Z,1.45
2019-05-25T10:29:47.136Z,1.37
2019-05-25T10:32:15.806Z,1.47
2019-05-25T10:34:44.803Z,1.25
2019-05-25T10:37:13.803Z,1.40
2019-05-25T10:39:42.468Z,1.57
2019-05-25T10:42:11.259Z,1.30
2019-05-25T10:44:39.979Z,1.00
2019-05-25T10:47:08.690Z,1.37
2019-05-25T10:49:37.857Z,1.20
2019-05-25T10:52:06.962Z,1.25
2019-05-25T10:54:36.099Z,1.35
2019-05-25T10:57:04.769Z,1.37
2019-05-25T10:59:33.487Z,1.20
2019-05-25T11:02:02.445Z,1.10
2019-05-25T11:04:31.464Z,1.35
2019-05-25T11:07:00.458Z,1.15
2019-05-25T11:09:29.146Z,1.10
2019-05-25T11:11:58.061Z,1.20
2019-05-25T11:14:26.832Z,0.98
2019-05-25T11:16:55.803Z,1.30
2019-05-25T11:19:24.872Z,1.22
2019-05-25T11:21:53.538Z,1.07
2019-05-25T11:24:22.239Z,0.90
2019-05-25T11:26:51.168Z,1.37
2019-05-25T11:29:19.856Z,1.30
2019-05-25T11:31:56.427Z,1.27
2019-05-25T11:34:19.759Z,1.30
2019-05-25T11:36:48.555Z,1.20
2019-05-25T11:39:17.337Z,1.47
2019-05-25T11:41:46.375Z,1.20
2019-05-25T11:44:15.080Z,1.10
2019-05-25T11:46:43.742Z,1.17
2019-05-25T11:49:22.131Z,1.30
2019-05-25T11:51:42.839Z,1.20
2019-05-25T11:54:11.525Z,1.00
2019-05-25T11:56:40.192Z,1.00
2019-05-25T11:59:08.930Z,0.98
2019-05-25T12:01:37.671Z,1.10
2019-05-25T12:04:06.659Z,1.20
2019-05-25T12:06:35.335Z,1.32
2019-05-25T12:09:05.181Z,1.10
2019-05-25T12:11:34.128Z,1.17
2019-05-25T12:14:02.815Z,1.15
2019-05-25T12:16:31.597Z,1.22
2019-05-25T12:19:00.322Z,0.98
2019-05-25T12:21:29.563Z,1.00
2019-05-25T12:23:58.598Z,1.20
2019-05-25T12:26:27.313Z,1.07
2019-05-25T12:28:56.342Z,1.10
2019-05-25T12:31:25.150Z,1.30
2019-05-25T12:33:53.861Z,1.07
2019-05-25T12:36:22.545Z,1.30
2019-05-25T12:38:51.306Z,1.00
2019-05-25T12:41:20.054Z,1.30
2019-05-25T12:43:49.111Z,1.77
2019-05-25T12:46:17.880Z,1.20
2019-05-25T12:48:46.526Z,1.20
2019-05-25T12:51:17.734Z,1.00
2019-05-25T12:53:45.916Z,1.20
2019-05-25T12:56:14.612Z,1.10
2019-05-25T12:58:43.599Z,1.87
2019-05-25T13:01:26.190Z,0.98
2019-05-25T13:03:57.924Z,1.70
2019-05-25T13:06:31.732Z,1.20
2019-05-25T13:09:05.259Z,1.00
2019-05-25T13:11:39.169Z,1.32
2019-05-25T13:14:14.722Z,1.20
2019-05-25T13:16:41.855Z,1.60
2019-05-25T13:19:10.576Z,1.40
2019-05-25T13:21:40.712Z,1.22
2019-05-25T13:24:12.482Z,1.00
2019-05-25T13:26:43.470Z,1.22
2019-05-25T13:29:16.088Z,1.55
2019-05-25T13:31:46.195Z,1.17
2019-05-25T13:34:16.166Z,1.27
2019-05-25T13:36:44.917Z,1.10
2019-05-25T13:39:13.942Z,1.40
2019-05-25T13:41:42.623Z,1.20
2019-05-25T13:44:11.374Z,1.65
2019-05-25T13:46:40.099Z,1.67
2019-05-25T13:49:08.787Z,1.50
2019-05-25T13:51:37.894Z,1.25
2019-05-25T13:54:06.596Z,1.10
2019-05-25T13:56:35.713Z,1.10
2019-05-25T13:59:04.539Z,1.27
2019-05-25T14:01:33.240Z,1.10
2019-05-25T14:04:02.420Z,1.10
2019-05-25T14:06:31.103Z,1.00
2019-05-25T14:08:59.802Z,1.15
2019-05-25T14:11:28.489Z,1.37
2019-05-25T14:13:57.188Z,1.30
2019-05-25T14:16:25.976Z,1.10
2019-05-25T14:18:54.723Z,1.30
2019-05-25T14:21:23.716Z,1.32
2019-05-25T14:23:52.434Z,1.20
2019-05-25T14:26:21.198Z,1.15
2019-05-25T14:28:49.888Z,1.00
2019-05-25T14:31:18.967Z,1.60
2019-05-25T14:33:48.060Z,1.40
2019-05-25T14:36:16.778Z,1.05
2019-05-25T14:38:45.444Z,1.12
2019-05-25T14:41:14.483Z,1.32
2019-05-25T14:43:43.769Z,1.25
2019-05-25T14:46:26.812Z,1.10
2019-05-25T14:48:43.466Z,1.12
2019-05-25T14:51:12.181Z,1.30
2019-05-25T14:53:40.922Z,0.90
2019-05-25T14:56:09.911Z,1.07
2019-05-25T14:58:39.364Z,1.23
2019-05-25T15:01:08.217Z,0.75
2019-05-25T15:03:37.228Z,1.22
2019-05-25T15:06:12.383Z,1.05
2019-05-25T15:08:41.309Z,1.25
2019-05-25T15:11:10.136Z,1.50
2019-05-25T15:13:39.131Z,0.98
2019-05-25T15:16:07.797Z,0.95
2019-05-25T15:18:36.459Z,1.07
2019-05-25T15:21:05.160Z,0.78
2019-05-25T15:23:33.818Z,1.00
2019-05-25T15:26:02.583Z,1.10
2019-05-25T15:28:31.268Z,0.98
2019-05-25T15:31:00.046Z,1.10
2019-05-25T15:33:28.771Z,1.03
2019-05-25T15:35:57.438Z,1.10
2019-05-25T15:38:26.766Z,1.23
2019-05-25T15:40:55.588Z,1.07
2019-05-25T15:43:24.245Z,0.88
2019-05-25T15:45:53.184Z,1.10
2019-05-25T15:48:21.859Z,0.90
2019-05-25T15:50:50.563Z,1.03
2019-05-25T15:53:19.350Z,1.10
2019-05-25T15:55:48.026Z,1.20
2019-05-25T15:58:17.212Z,1.27
2019-05-25T16:00:50.379Z,1.10
2019-05-25T16:03:20.555Z,1.10
2019-05-25T16:05:49.857Z,1.33
2019-05-25T16:08:19.414Z,1.00
2019-05-25T16:10:48.161Z,1.27
2019-05-25T16:13:17.219Z,1.20
2019-05-25T16:15:45.996Z,1.40
2019-05-25T16:18:14.745Z,1.30
2019-05-25T16:20:43.408Z,1.20
2019-05-25T16:23:12.091Z,0.87
2019-05-25T16:25:40.849Z,0.90
2019-05-25T16:28:09.575Z,1.23
2019-05-25T16:30:38.300Z,1.00
2019-05-25T16:33:12.195Z,1.30
2019-05-25T16:35:37.822Z,1.23
2019-05-25T16:38:06.774Z,1.30
2019-05-25T16:40:35.856Z,1.30
2019-05-25T16:43:04.593Z,1.50
2019-05-25T16:45:34.015Z,1.17
2019-05-25T16:48:02.696Z,1.57
2019-05-25T16:50:31.780Z,1.30
2019-05-25T16:53:00.496Z,1.17
2019-05-25T16:55:29.160Z,1.30
2019-05-25T16:57:57.840Z,1.13
2019-05-25T17:00:28.513Z,1.30
2019-05-25T17:02:58.770Z,1.10
2019-05-25T17:05:27.781Z,1.47
2019-05-25T17:07:56.585Z,1.20
2019-05-25T17:10:26.566Z,1.10
2019-05-25T17:12:55.729Z,1.17
2019-05-25T17:15:24.542Z,1.10
2019-05-25T17:17:53.464Z,1.00
2019-05-25T17:20:22.344Z,1.37
2019-05-25T17:22:51.055Z,1.07
2019-05-25T17:25:20.236Z,0.90
2019-05-25T17:27:49.119Z,1.17
2019-05-25T17:30:23.797Z,1.00
2019-05-25T17:32:52.489Z,1.10
2019-05-25T17:35:21.735Z,1.30
2019-05-25T17:37:50.730Z,1.30
2019-05-25T17:40:19.574Z,1.30
2019-05-25T17:42:48.330Z,1.20
2019-05-25T17:45:17.156Z,1.10
2019-05-25T17:47:45.856Z,1.00
2019-05-25T17:50:14.600Z,0.97
2019-05-25T17:52:43.284Z,1.60
2019-05-25T17:55:12.108Z,1.30
2019-05-25T17:57:42.067Z,1.30
2019-05-25T18:00:11.123Z,1.60
2019-05-25T18:02:39.825Z,1.07
2019-05-25T18:05:09.991Z,1.17
2019-05-25T18:07:38.906Z,1.67
2019-05-25T18:10:08.085Z,0.87
2019-05-25T18:12:36.771Z,1.00
2019-05-25T18:15:05.980Z,1.13
2019-05-25T18:17:34.653Z,1.00
2019-05-25T18:20:04.326Z,1.50
2019-05-25T18:22:33.014Z,1.30
2019-05-25T18:25:01.964Z,1.33
2019-05-25T18:27:30.666Z,1.30
2019-05-25T18:29:59.760Z,1.10
2019-05-25T18:32:28.454Z,1.07
2019-05-25T18:35:02.114Z,1.07
2019-05-25T18:37:34.083Z,1.43
2019-05-25T18:40:02.799Z,1.13
2019-05-25T18:42:31.537Z,1.30
2019-05-25T18:45:00.230Z,1.30
2019-05-25T18:47:28.885Z,1.03
2019-05-25T18:49:57.903Z,1.20
2019-05-25T18:52:27.088Z,1.30
2019-05-25T18:54:55.859Z,1.30
2019-05-25T18:57:24.561Z,1.20
2019-05-25T18:59:53.259Z,1.53
2019-05-25T19:02:21.975Z,1.33
2019-05-25T19:04:59.381Z,1.27
2019-05-25T19:07:21.158Z,1.30
2019-05-25T19:09:49.887Z,1.10
2019-05-25T19:12:18.702Z,2.27
2019-05-25T19:14:47.393Z,1.80
2019-05-25T19:17:16.192Z,1.40
2019-05-25T19:19:45.031Z,1.53
2019-05-25T19:22:13.836Z,1.33
2019-05-25T19:24:42.739Z,1.20
2019-05-25T19:27:11.667Z,1.30
2019-05-25T19:29:40.640Z,1.40
2019-05-25T19:32:09.711Z,1.57
2019-05-25T19:34:38.818Z,1.30
2019-05-25T19:37:08.119Z,1.40
2019-05-25T19:39:37.236Z,1.73
2019-05-25T19:42:05.903Z,1.57
2019-05-25T19:44:34.584Z,1.60
2019-05-25T19:47:03.720Z,1.60
2019-05-25T19:49:32.484Z,1.50
2019-05-25T19:52:01.180Z,1.60
2019-05-25T19:54:29.831Z,1.60
2019-05-25T19:56:58.929Z,1.57
2019-05-25T19:59:27.627Z,1.67
2019-05-25T20:01:56.381Z,1.70
2019-05-25T20:04:25.572Z,1.90
2019-05-25T20:06:55.495Z,1.93
2019-05-25T20:09:24.426Z,1.70
2019-05-25T20:11:53.734Z,2.10
2019-05-25T20:14:22.752Z,1.90
2019-05-25T20:16:51.783Z,2.03
2019-05-25T20:19:20.941Z,1.80
2019-05-25T20:21:49.958Z,1.97
2019-05-25T20:24:18.705Z,1.90
2019-05-25T20:26:47.354Z,1.83
2019-05-25T20:29:16.043Z,1.87
2019-05-25T20:31:44.979Z,1.97
2019-05-25T20:34:13.624Z,1.93
2019-05-25T20:36:42.312Z,1.60
2019-05-25T20:39:11.572Z,2.00
2019-05-25T20:41:40.306Z,1.80
2019-05-25T20:44:08.975Z,3.40
2019-05-25T20:46:37.651Z,2.07
2019-05-25T20:49:06.352Z,1.90
2019-05-25T20:51:35.109Z,1.90
2019-05-25T20:54:03.846Z,2.00
2019-05-25T20:56:32.700Z,1.83
2019-05-25T20:59:01.390Z,2.20
2019-05-25T21:01:30.094Z,2.07
2019-05-25T21:03:58.761Z,2.17
2019-05-25T21:06:27.458Z,1.80
2019-05-25T21:08:56.317Z,2.30
2019-05-25T21:11:25.749Z,1.83
2019-05-25T21:13:54.415Z,2.13
2019-05-25T21:16:23.256Z,2.43
2019-05-25T21:18:52.075Z,2.07
2019-05-25T21:21:20.815Z,2.13
2019-05-25T21:23:50.904Z,2.50
2019-05-25T21:26:20.106Z,2.57
2019-05-25T21:28:48.938Z,2.17
2019-05-25T21:31:17.885Z,2.07
2019-05-25T21:33:46.551Z,2.10
2019-05-25T21:36:15.579Z,2.20
2019-05-25T21:38:44.251Z,2.30
2019-05-25T21:41:13.233Z,2.30
2019-05-25T21:43:41.854Z,2.00
2019-05-25T21:46:10.870Z,1.93
2019-05-25T21:48:40.219Z,2.47
2019-05-25T21:51:08.886Z,1.87
2019-05-25T21:55:43.316Z,2.10
2019-05-25T21:58:12.005Z,2.37
2019-05-25T22:00:41.507Z,2.17
2019-05-25T22:03:10.492Z,2.00
2019-05-25T22:05:39.157Z,1.90
2019-05-25T22:08:07.842Z,1.90
2019-05-25T22:10:36.628Z,1.97
2019-05-25T22:13:05.388Z,2.27
2019-05-25T22:15:34.141Z,2.27
2019-05-25T22:18:03.127Z,2.00
2019-05-25T22:20:32.089Z,2.00
2019-05-25T22:23:00.800Z,2.37
2019-05-25T22:25:29.592Z,2.20
2019-05-25T22:27:58.290Z,2.43
2019-05-25T22:30:27.521Z,2.27
2019-05-25T22:32:56.205Z,2.10
2019-05-25T22:35:24.914Z,2.70
2019-05-25T22:37:54.103Z,2.20
2019-05-25T22:40:22.773Z,2.40
2019-05-25T22:42:51.867Z,2.27
2019-05-25T22:45:20.536Z,1.87
2019-05-25T22:47:49.242Z,2.40
2019-05-25T22:50:17.994Z,1.93
2019-05-25T22:52:46.687Z,2.27
2019-05-25T22:55:15.374Z,2.40
2019-05-25T22:57:44.503Z,2.20
2019-05-25T23:00:13.466Z,2.37
2019-05-25T23:02:42.149Z,1.93
2019-05-25T23:05:11.651Z,2.40
2019-05-25T23:07:40.710Z,2.13
2019-05-25T23:10:09.731Z,1.90
2019-05-25T23:12:38.404Z,2.73
2019-05-25T23:15:08.545Z,2.57
2019-05-25T23:17:37.276Z,2.50
2019-05-25T23:20:06.467Z,2.00
2019-05-25T23:22:35.189Z,2.30
2019-05-25T23:25:03.924Z,2.37
2019-05-25T23:27:32.858Z,2.70
2019-05-25T23:30:01.643Z,2.20
2019-05-25T23:32:30.339Z,2.20
2019-05-25T23:34:59.619Z,2.30
2019-05-25T23:37:28.315Z,2.50
2019-05-25T23:39:56.977Z,1.97
2019-05-25T23:42:25.652Z,2.20
2019-05-25T23:44:54.805Z,2.43
2019-05-25T23:47:23.483Z,2.40
2019-05-25T23:49:52.172Z,2.40
2019-05-25T23:52:20.892Z,2.27
2019-05-25T23:54:50.301Z,2.23
2019-05-25T23:59:43.265Z,2.27
